Fort Carson, Colorado
Current Conditions -  °F | °C
As of 5:58 AM on Friday 24 Oct 2014 (Local Time) from KFCS Reporting Station
Clear Clear  
Wind Chill: 42°   Ceiling: Unl
Heat Index: 46°   Visibility: 10mi
Dew Point: 32°   Wind: 7mph
Humidity: 59%   Direction: 300°WNW
Pressure: 30.18"   Gusts: NA
Location:  38.74°N, 104.77°W
Report Text: KFCS 241158Z AUTO 30006KT 10SM CLR 08/00 A3018 RMK AO2 SLP199 T00770001 10099 20070 55002
Loading
Personal Weather Stations






























Interactive Weather Map
Tropical Storm Tracking
New forecast layout! Learn more

10-Day Weather Forecast

Advertisements
Track Severe Weather on mobile